sensor_id;sensor_type;location;lat;lon;timestamp;P1;durP1;ratioP1;P2;durP2;ratioP2
19877;SDS011;10101;52.204;9.910;2023-01-29T00:01:26;14.13;;;7.27;;
19877;SDS011;10101;52.204;9.910;2023-01-29T00:03:55;11.77;;;7.17;;
19877;SDS011;10101;52.204;9.910;2023-01-29T00:06:22;13.03;;;7.13;;
19877;SDS011;10101;52.204;9.910;2023-01-29T00:08:49;13.50;;;7.20;;
19877;SDS011;10101;52.204;9.910;2023-01-29T00:11:16;12.63;;;7.67;;
19877;SDS011;10101;52.204;9.910;2023-01-29T00:13:44;11.90;;;7.27;;
19877;SDS011;10101;52.204;9.910;2023-01-29T00:16:11;14.57;;;7.30;;
19877;SDS011;10101;52.204;9.910;2023-01-29T00:18:38;11.10;;;6.90;;
19877;SDS011;10101;52.204;9.910;2023-01-29T00:21:08;13.80;;;7.47;;
19877;SDS011;10101;52.204;9.910;2023-01-29T00:23:35;14.13;;;7.77;;
19877;SDS011;10101;52.204;9.910;2023-01-29T00:26:02;13.87;;;7.80;;
19877;SDS011;10101;52.204;9.910;2023-01-29T00:28:29;12.83;;;7.93;;
19877;SDS011;10101;52.204;9.910;2023-01-29T00:30:56;15.30;;;7.93;;
19877;SDS011;10101;52.204;9.910;2023-01-29T00:33:23;13.13;;;7.57;;
19877;SDS011;10101;52.204;9.910;2023-01-29T00:35:49;12.93;;;7.30;;
19877;SDS011;10101;52.204;9.910;2023-01-29T00:38:17;13.67;;;7.47;;
19877;SDS011;10101;52.204;9.910;2023-01-29T00:40:44;15.27;;;7.90;;
19877;SDS011;10101;52.204;9.910;2023-01-29T00:43:28;16.30;;;7.77;;
19877;SDS011;10101;52.204;9.910;2023-01-29T00:46:12;14.17;;;7.47;;
19877;SDS011;10101;52.204;9.910;2023-01-29T00:48:39;14.00;;;8.23;;
19877;SDS011;10101;52.204;9.910;2023-01-29T00:51:05;15.47;;;8.53;;
19877;SDS011;10101;52.204;9.910;2023-01-29T00:53:33;16.50;;;8.63;;
19877;SDS011;10101;52.204;9.910;2023-01-29T00:56:00;15.03;;;8.37;;
19877;SDS011;10101;52.204;9.910;2023-01-29T00:58:27;18.07;;;8.67;;
19877;SDS011;10101;52.204;9.910;2023-01-29T01:00:58;15.37;;;9.30;;
19877;SDS011;10101;52.204;9.910;2023-01-29T01:03:26;14.77;;;8.30;;
19877;SDS011;10101;52.204;9.910;2023-01-29T01:06:01;18.93;;;9.53;;
19877;SDS011;10101;52.204;9.910;2023-01-29T01:08:28;18.20;;;9.00;;
19877;SDS011;10101;52.204;9.910;2023-01-29T01:11:14;15.57;;;8.90;;
19877;SDS011;10101;52.204;9.910;2023-01-29T01:13:40;16.67;;;9.40;;
19877;SDS011;10101;52.204;9.910;2023-01-29T01:16:08;16.47;;;8.77;;
19877;SDS011;10101;52.204;9.910;2023-01-29T01:18:36;16.20;;;8.73;;
19877;SDS011;10101;52.204;9.910;2023-01-29T01:21:03;17.53;;;9.13;;
19877;SDS011;10101;52.204;9.910;2023-01-29T01:23:30;14.40;;;9.03;;
19877;SDS011;10101;52.204;9.910;2023-01-29T01:25:57;16.27;;;9.17;;
19877;SDS011;10101;52.204;9.910;2023-01-29T01:28:25;17.53;;;9.23;;
19877;SDS011;10101;52.204;9.910;2023-01-29T01:30:52;14.50;;;9.00;;
19877;SDS011;10101;52.204;9.910;2023-01-29T01:33:19;18.33;;;9.67;;
19877;SDS011;10101;52.204;9.910;2023-01-29T01:35:46;19.10;;;9.40;;
19877;SDS011;10101;52.204;9.910;2023-01-29T01:38:13;17.00;;;8.90;;
19877;SDS011;10101;52.204;9.910;2023-01-29T01:40:43;17.40;;;9.50;;
19877;SDS011;10101;52.204;9.910;2023-01-29T01:43:10;17.37;;;9.77;;
19877;SDS011;10101;52.204;9.910;2023-01-29T01:45:38;16.10;;;8.60;;
19877;SDS011;10101;52.204;9.910;2023-01-29T01:48:07;17.23;;;8.73;;
19877;SDS011;10101;52.204;9.910;2023-01-29T01:50:38;15.97;;;8.87;;
19877;SDS011;10101;52.204;9.910;2023-01-29T01:53:09;15.03;;;8.33;;
19877;SDS011;10101;52.204;9.910;2023-01-29T01:55:39;17.80;;;8.70;;
19877;SDS011;10101;52.204;9.910;2023-01-29T01:58:09;14.83;;;8.63;;
19877;SDS011;10101;52.204;9.910;2023-01-29T02:00:41;14.07;;;8.27;;
19877;SDS011;10101;52.204;9.910;2023-01-29T02:03:08;15.30;;;8.43;;
19877;SDS011;10101;52.204;9.910;2023-01-29T02:05:54;17.43;;;9.07;;
19877;SDS011;10101;52.204;9.910;2023-01-29T02:08:43;17.73;;;8.70;;
19877;SDS011;10101;52.204;9.910;2023-01-29T02:11:33;16.57;;;9.33;;
19877;SDS011;10101;52.204;9.910;2023-01-29T02:13:59;16.10;;;9.33;;
19877;SDS011;10101;52.204;9.910;2023-01-29T02:16:27;14.77;;;8.90;;
19877;SDS011;10101;52.204;9.910;2023-01-29T02:18:54;18.40;;;9.07;;
19877;SDS011;10101;52.204;9.910;2023-01-29T02:21:32;16.03;;;7.90;;
19877;SDS011;10101;52.204;9.910;2023-01-29T02:24:25;17.73;;;9.53;;
19877;SDS011;10101;52.204;9.910;2023-01-29T02:27:24;16.17;;;8.87;;
19877;SDS011;10101;52.204;9.910;2023-01-29T02:30:04;14.87;;;8.07;;
19877;SDS011;10101;52.204;9.910;2023-01-29T02:32:40;17.67;;;9.30;;
19877;SDS011;10101;52.204;9.910;2023-01-29T02:35:20;18.43;;;9.20;;
19877;SDS011;10101;52.204;9.910;2023-01-29T02:37:54;17.43;;;9.10;;
19877;SDS011;10101;52.204;9.910;2023-01-29T02:40:28;15.73;;;8.23;;
19877;SDS011;10101;52.204;9.910;2023-01-29T02:43:02;20.63;;;9.63;;
19877;SDS011;10101;52.204;9.910;2023-01-29T02:45:37;17.60;;;9.37;;
19877;SDS011;10101;52.204;9.910;2023-01-29T02:48:10;19.13;;;9.17;;
19877;SDS011;10101;52.204;9.910;2023-01-29T02:50:44;20.20;;;9.70;;
19877;SDS011;10101;52.204;9.910;2023-01-29T02:53:15;18.00;;;9.30;;
19877;SDS011;10101;52.204;9.910;2023-01-29T02:55:45;18.43;;;10.07;;
19877;SDS011;10101;52.204;9.910;2023-01-29T02:58:17;18.77;;;9.23;;
19877;SDS011;10101;52.204;9.910;2023-01-29T03:00:50;18.10;;;9.40;;
19877;SDS011;10101;52.204;9.910;2023-01-29T03:03:20;18.33;;;9.07;;
19877;SDS011;10101;52.204;9.910;2023-01-29T03:05:53;19.63;;;9.63;;
19877;SDS011;10101;52.204;9.910;2023-01-29T03:08:27;19.40;;;8.47;;
19877;SDS011;10101;52.204;9.910;2023-01-29T03:11:06;19.80;;;11.03;;
19877;SDS011;10101;52.204;9.910;2023-01-29T03:13:39;19.07;;;9.57;;
19877;SDS011;10101;52.204;9.910;2023-01-29T03:16:10;18.17;;;9.93;;
19877;SDS011;10101;52.204;9.910;2023-01-29T03:18:44;17.87;;;9.40;;
19877;SDS011;10101;52.204;9.910;2023-01-29T03:21:16;17.50;;;9.10;;
19877;SDS011;10101;52.204;9.910;2023-01-29T03:24:04;19.20;;;9.73;;
19877;SDS011;10101;52.204;9.910;2023-01-29T03:26:50;19.27;;;9.40;;
19877;SDS011;10101;52.204;9.910;2023-01-29T03:29:35;17.13;;;9.83;;
19877;SDS011;10101;52.204;9.910;2023-01-29T03:32:24;17.67;;;9.33;;
19877;SDS011;10101;52.204;9.910;2023-01-29T03:34:56;19.50;;;10.87;;
19877;SDS011;10101;52.204;9.910;2023-01-29T03:37:28;17.20;;;9.67;;
19877;SDS011;10101;52.204;9.910;2023-01-29T03:39:59;20.87;;;9.73;;
19877;SDS011;10101;52.204;9.910;2023-01-29T03:42:27;19.10;;;10.13;;
19877;SDS011;10101;52.204;9.910;2023-01-29T03:45:04;19.10;;;9.93;;
19877;SDS011;10101;52.204;9.910;2023-01-29T03:47:41;16.83;;;9.27;;
19877;SDS011;10101;52.204;9.910;2023-01-29T03:50:14;19.63;;;10.67;;
19877;SDS011;10101;52.204;9.910;2023-01-29T03:52:55;19.13;;;10.33;;
19877;SDS011;10101;52.204;9.910;2023-01-29T03:55:28;19.40;;;9.73;;
19877;SDS011;10101;52.204;9.910;2023-01-29T03:58:03;19.53;;;10.00;;
19877;SDS011;10101;52.204;9.910;2023-01-29T04:00:40;19.40;;;9.80;;
19877;SDS011;10101;52.204;9.910;2023-01-29T04:03:13;17.80;;;9.43;;
19877;SDS011;10101;52.204;9.910;2023-01-29T04:05:46;20.10;;;9.90;;
19877;SDS011;10101;52.204;9.910;2023-01-29T04:08:18;16.63;;;9.30;;
19877;SDS011;10101;52.204;9.910;2023-01-29T04:10:50;19.47;;;10.27;;
19877;SDS011;10101;52.204;9.910;2023-01-29T04:13:21;16.87;;;9.47;;
19877;SDS011;10101;52.204;9.910;2023-01-29T04:15:52;19.07;;;9.40;;
19877;SDS011;10101;52.204;9.910;2023-01-29T04:18:24;16.20;;;9.33;;
19877;SDS011;10101;52.204;9.910;2023-01-29T04:20:51;20.47;;;9.80;;
19877;SDS011;10101;52.204;9.910;2023-01-29T04:23:19;17.70;;;9.87;;
19877;SDS011;10101;52.204;9.910;2023-01-29T04:25:51;20.90;;;9.50;;
19877;SDS011;10101;52.204;9.910;2023-01-29T04:28:24;20.07;;;11.13;;
19877;SDS011;10101;52.204;9.910;2023-01-29T04:30:59;20.80;;;9.30;;
19877;SDS011;10101;52.204;9.910;2023-01-29T04:33:32;17.80;;;10.03;;
19877;SDS011;10101;52.204;9.910;2023-01-29T04:36:10;19.57;;;10.37;;
19877;SDS011;10101;52.204;9.910;2023-01-29T04:38:46;22.27;;;10.13;;
19877;SDS011;10101;52.204;9.910;2023-01-29T04:41:21;22.50;;;10.60;;
19877;SDS011;10101;52.204;9.910;2023-01-29T04:43:55;18.50;;;9.67;;
19877;SDS011;10101;52.204;9.910;2023-01-29T04:46:30;18.03;;;9.70;;
19877;SDS011;10101;52.204;9.910;2023-01-29T04:49:10;20.30;;;9.60;;
19877;SDS011;10101;52.204;9.910;2023-01-29T04:51:44;20.20;;;10.23;;
19877;SDS011;10101;52.204;9.910;2023-01-29T04:54:18;20.03;;;10.00;;
19877;SDS011;10101;52.204;9.910;2023-01-29T04:56:54;18.67;;;10.07;;
19877;SDS011;10101;52.204;9.910;2023-01-29T04:59:27;21.23;;;10.90;;
19877;SDS011;10101;52.204;9.910;2023-01-29T05:01:57;22.03;;;10.50;;
19877;SDS011;10101;52.204;9.910;2023-01-29T05:04:27;19.57;;;9.77;;
19877;SDS011;10101;52.204;9.910;2023-01-29T05:06:56;16.50;;;9.07;;
19877;SDS011;10101;52.204;9.910;2023-01-29T05:09:24;20.20;;;10.20;;
19877;SDS011;10101;52.204;9.910;2023-01-29T05:11:51;17.70;;;9.87;;
19877;SDS011;10101;52.204;9.910;2023-01-29T05:14:18;19.20;;;9.67;;
19877;SDS011;10101;52.204;9.910;2023-01-29T05:16:46;20.87;;;9.83;;
19877;SDS011;10101;52.204;9.910;2023-01-29T05:19:17;18.67;;;10.17;;
19877;SDS011;10101;52.204;9.910;2023-01-29T05:21:47;20.77;;;9.70;;
19877;SDS011;10101;52.204;9.910;2023-01-29T05:24:15;20.80;;;10.87;;
19877;SDS011;10101;52.204;9.910;2023-01-29T05:26:44;21.83;;;10.23;;
19877;SDS011;10101;52.204;9.910;2023-01-29T05:29:30;19.57;;;10.17;;
19877;SDS011;10101;52.204;9.910;2023-01-29T05:31:57;21.90;;;10.50;;
19877;SDS011;10101;52.204;9.910;2023-01-29T05:34:24;19.63;;;10.40;;
19877;SDS011;10101;52.204;9.910;2023-01-29T05:36:52;21.10;;;11.13;;
19877;SDS011;10101;52.204;9.910;2023-01-29T05:39:18;21.90;;;10.43;;
19877;SDS011;10101;52.204;9.910;2023-01-29T05:41:45;18.70;;;9.37;;
19877;SDS011;10101;52.204;9.910;2023-01-29T05:44:12;18.53;;;10.10;;
19877;SDS011;10101;52.204;9.910;2023-01-29T05:46:39;19.53;;;9.93;;
19877;SDS011;10101;52.204;9.910;2023-01-29T05:49:05;19.10;;;10.47;;
19877;SDS011;10101;52.204;9.910;2023-01-29T05:51:32;17.53;;;9.10;;
19877;SDS011;10101;52.204;9.910;2023-01-29T05:54:00;20.97;;;10.40;;
19877;SDS011;10101;52.204;9.910;2023-01-29T05:56:27;23.63;;;11.57;;
19877;SDS011;10101;52.204;9.910;2023-01-29T05:58:54;23.33;;;11.27;;
19877;SDS011;10101;52.204;9.910;2023-01-29T06:01:21;21.40;;;10.73;;
19877;SDS011;10101;52.204;9.910;2023-01-29T06:03:50;20.53;;;10.50;;
19877;SDS011;10101;52.204;9.910;2023-01-29T06:06:16;23.57;;;10.90;;
19877;SDS011;10101;52.204;9.910;2023-01-29T06:08:43;22.33;;;10.60;;
19877;SDS011;10101;52.204;9.910;2023-01-29T06:11:12;20.97;;;11.23;;
19877;SDS011;10101;52.204;9.910;2023-01-29T06:13:40;21.67;;;10.87;;
19877;SDS011;10101;52.204;9.910;2023-01-29T06:16:07;21.43;;;10.87;;
19877;SDS011;10101;52.204;9.910;2023-01-29T06:18:35;23.63;;;11.07;;
19877;SDS011;10101;52.204;9.910;2023-01-29T06:21:03;22.43;;;10.73;;
19877;SDS011;10101;52.204;9.910;2023-01-29T06:23:31;24.80;;;10.70;;
19877;SDS011;10101;52.204;9.910;2023-01-29T06:25:58;20.87;;;10.83;;
19877;SDS011;10101;52.204;9.910;2023-01-29T06:28:27;23.83;;;10.43;;
19877;SDS011;10101;52.204;9.910;2023-01-29T06:30:55;21.37;;;10.13;;
19877;SDS011;10101;52.204;9.910;2023-01-29T06:33:23;21.47;;;10.63;;
19877;SDS011;10101;52.204;9.910;2023-01-29T06:35:54;21.47;;;10.03;;
19877;SDS011;10101;52.204;9.910;2023-01-29T06:38:22;22.23;;;10.70;;
19877;SDS011;10101;52.204;9.910;2023-01-29T06:40:49;21.10;;;10.07;;
19877;SDS011;10101;52.204;9.910;2023-01-29T06:43:16;23.00;;;10.93;;
19877;SDS011;10101;52.204;9.910;2023-01-29T06:45:48;21.97;;;10.67;;
19877;SDS011;10101;52.204;9.910;2023-01-29T06:48:15;23.73;;;10.67;;
19877;SDS011;10101;52.204;9.910;2023-01-29T06:50:42;19.83;;;10.23;;
19877;SDS011;10101;52.204;9.910;2023-01-29T06:53:09;22.57;;;10.57;;
19877;SDS011;10101;52.204;9.910;2023-01-29T06:55:36;25.33;;;10.13;;
19877;SDS011;10101;52.204;9.910;2023-01-29T06:58:04;21.37;;;10.53;;
19877;SDS011;10101;52.204;9.910;2023-01-29T07:00:31;21.40;;;9.97;;
19877;SDS011;10101;52.204;9.910;2023-01-29T07:03:00;23.70;;;11.23;;
19877;SDS011;10101;52.204;9.910;2023-01-29T07:05:27;24.07;;;9.47;;
19877;SDS011;10101;52.204;9.910;2023-01-29T07:07:53;24.83;;;11.87;;
19877;SDS011;10101;52.204;9.910;2023-01-29T07:10:20;22.40;;;11.33;;
19877;SDS011;10101;52.204;9.910;2023-01-29T07:12:47;24.53;;;11.67;;
19877;SDS011;10101;52.204;9.910;2023-01-29T07:15:14;23.53;;;11.13;;
19877;SDS011;10101;52.204;9.910;2023-01-29T07:17:44;24.50;;;11.33;;
19877;SDS011;10101;52.204;9.910;2023-01-29T07:20:22;22.83;;;10.67;;
19877;SDS011;10101;52.204;9.910;2023-01-29T07:22:49;25.80;;;11.33;;
19877;SDS011;10101;52.204;9.910;2023-01-29T07:25:16;21.47;;;10.60;;
19877;SDS011;10101;52.204;9.910;2023-01-29T07:27:42;21.77;;;10.33;;
19877;SDS011;10101;52.204;9.910;2023-01-29T07:30:10;23.60;;;10.07;;
19877;SDS011;10101;52.204;9.910;2023-01-29T07:32:37;27.23;;;13.07;;
19877;SDS011;10101;52.204;9.910;2023-01-29T07:35:04;24.73;;;12.30;;
19877;SDS011;10101;52.204;9.910;2023-01-29T07:37:33;27.20;;;12.47;;
19877;SDS011;10101;52.204;9.910;2023-01-29T07:39:59;24.47;;;11.17;;
19877;SDS011;10101;52.204;9.910;2023-01-29T07:42:26;20.43;;;10.87;;
19877;SDS011;10101;52.204;9.910;2023-01-29T07:44:53;27.87;;;12.83;;
19877;SDS011;10101;52.204;9.910;2023-01-29T07:47:19;28.87;;;12.97;;
19877;SDS011;10101;52.204;9.910;2023-01-29T07:49:46;26.00;;;12.37;;
19877;SDS011;10101;52.204;9.910;2023-01-29T07:52:13;23.73;;;12.57;;
19877;SDS011;10101;52.204;9.910;2023-01-29T07:54:41;23.60;;;10.83;;
19877;SDS011;10101;52.204;9.910;2023-01-29T07:57:07;22.10;;;10.43;;
19877;SDS011;10101;52.204;9.910;2023-01-29T07:59:34;27.80;;;13.30;;
19877;SDS011;10101;52.204;9.910;2023-01-29T08:02:01;28.73;;;12.77;;
19877;SDS011;10101;52.204;9.910;2023-01-29T08:04:28;32.07;;;13.27;;
19877;SDS011;10101;52.204;9.910;2023-01-29T08:06:55;29.40;;;13.90;;
19877;SDS011;10101;52.204;9.910;2023-01-29T08:09:21;24.93;;;12.03;;
19877;SDS011;10101;52.204;9.910;2023-01-29T08:11:50;23.50;;;11.23;;
19877;SDS011;10101;52.204;9.910;2023-01-29T08:14:16;24.47;;;11.50;;
19877;SDS011;10101;52.204;9.910;2023-01-29T08:16:43;27.90;;;12.63;;
19877;SDS011;10101;52.204;9.910;2023-01-29T08:19:10;28.23;;;12.60;;
19877;SDS011;10101;52.204;9.910;2023-01-29T08:21:36;25.47;;;12.47;;
19877;SDS011;10101;52.204;9.910;2023-01-29T08:24:03;25.87;;;12.77;;
19877;SDS011;10101;52.204;9.910;2023-01-29T08:26:31;24.60;;;11.53;;
19877;SDS011;10101;52.204;9.910;2023-01-29T08:28:59;23.20;;;10.13;;
19877;SDS011;10101;52.204;9.910;2023-01-29T08:31:25;23.97;;;11.87;;
19877;SDS011;10101;52.204;9.910;2023-01-29T08:33:52;28.70;;;12.83;;
19877;SDS011;10101;52.204;9.910;2023-01-29T08:36:19;26.67;;;12.60;;
19877;SDS011;10101;52.204;9.910;2023-01-29T08:38:46;25.03;;;12.30;;
19877;SDS011;10101;52.204;9.910;2023-01-29T08:41:13;20.17;;;10.13;;
19877;SDS011;10101;52.204;9.910;2023-01-29T08:43:40;23.63;;;12.03;;
19877;SDS011;10101;52.204;9.910;2023-01-29T08:46:08;25.07;;;12.47;;
19877;SDS011;10101;52.204;9.910;2023-01-29T08:48:34;26.23;;;12.57;;
19877;SDS011;10101;52.204;9.910;2023-01-29T08:51:01;24.47;;;13.07;;
19877;SDS011;10101;52.204;9.910;2023-01-29T08:53:28;25.97;;;12.33;;
19877;SDS011;10101;52.204;9.910;2023-01-29T08:55:55;26.77;;;12.27;;
19877;SDS011;10101;52.204;9.910;2023-01-29T08:58:22;26.73;;;12.27;;
19877;SDS011;10101;52.204;9.910;2023-01-29T09:00:49;27.00;;;12.97;;
19877;SDS011;10101;52.204;9.910;2023-01-29T09:03:17;24.83;;;11.93;;
19877;SDS011;10101;52.204;9.910;2023-01-29T09:05:43;26.53;;;11.63;;
19877;SDS011;10101;52.204;9.910;2023-01-29T09:08:10;22.07;;;10.93;;
19877;SDS011;10101;52.204;9.910;2023-01-29T09:10:37;26.00;;;12.30;;
19877;SDS011;10101;52.204;9.910;2023-01-29T09:13:04;30.53;;;13.10;;
19877;SDS011;10101;52.204;9.910;2023-01-29T09:15:30;26.07;;;12.00;;
19877;SDS011;10101;52.204;9.910;2023-01-29T09:17:57;25.63;;;12.13;;
19877;SDS011;10101;52.204;9.910;2023-01-29T09:20:30;27.27;;;12.40;;
19877;SDS011;10101;52.204;9.910;2023-01-29T09:22:57;27.80;;;12.37;;
19877;SDS011;10101;52.204;9.910;2023-01-29T09:25:23;23.63;;;12.03;;
19877;SDS011;10101;52.204;9.910;2023-01-29T09:27:50;27.67;;;13.67;;
19877;SDS011;10101;52.204;9.910;2023-01-29T09:30:18;30.20;;;13.63;;
19877;SDS011;10101;52.204;9.910;2023-01-29T09:32:45;31.50;;;13.80;;
19877;SDS011;10101;52.204;9.910;2023-01-29T09:35:12;27.00;;;12.97;;
19877;SDS011;10101;52.204;9.910;2023-01-29T09:37:40;27.87;;;13.43;;
19877;SDS011;10101;52.204;9.910;2023-01-29T09:40:08;27.93;;;13.10;;
19877;SDS011;10101;52.204;9.910;2023-01-29T09:42:47;28.07;;;14.27;;
19877;SDS011;10101;52.204;9.910;2023-01-29T09:45:20;26.57;;;12.53;;
19877;SDS011;10101;52.204;9.910;2023-01-29T09:47:49;27.43;;;13.90;;
19877;SDS011;10101;52.204;9.910;2023-01-29T09:50:17;27.00;;;13.83;;
19877;SDS011;10101;52.204;9.910;2023-01-29T09:52:50;26.80;;;13.03;;
19877;SDS011;10101;52.204;9.910;2023-01-29T09:55:21;27.80;;;13.17;;
19877;SDS011;10101;52.204;9.910;2023-01-29T09:57:51;29.30;;;12.80;;
19877;SDS011;10101;52.204;9.910;2023-01-29T10:00:22;27.47;;;12.60;;
19877;SDS011;10101;52.204;9.910;2023-01-29T10:02:54;28.87;;;13.17;;
19877;SDS011;10101;52.204;9.910;2023-01-29T10:08:31;28.37;;;13.07;;
19877;SDS011;10101;52.204;9.910;2023-01-29T10:11:12;32.07;;;14.37;;
19877;SDS011;10101;52.204;9.910;2023-01-29T10:13:55;22.43;;;11.37;;
19877;SDS011;10101;52.204;9.910;2023-01-29T10:16:33;31.93;;;13.57;;
19877;SDS011;10101;52.204;9.910;2023-01-29T10:19:22;28.07;;;10.17;;
19877;SDS011;10101;52.204;9.910;2023-01-29T10:22:10;28.03;;;12.97;;
19877;SDS011;10101;52.204;9.910;2023-01-29T10:24:56;26.53;;;11.93;;
19877;SDS011;10101;52.204;9.910;2023-01-29T10:27:26;27.70;;;12.70;;
19877;SDS011;10101;52.204;9.910;2023-01-29T10:29:58;28.47;;;14.00;;
19877;SDS011;10101;52.204;9.910;2023-01-29T10:32:27;26.43;;;12.13;;
19877;SDS011;10101;52.204;9.910;2023-01-29T10:34:56;31.07;;;12.90;;
19877;SDS011;10101;52.204;9.910;2023-01-29T10:37:27;26.60;;;12.77;;
19877;SDS011;10101;52.204;9.910;2023-01-29T10:40:05;26.53;;;13.10;;
19877;SDS011;10101;52.204;9.910;2023-01-29T10:42:43;27.77;;;12.87;;
19877;SDS011;10101;52.204;9.910;2023-01-29T10:45:16;23.87;;;12.10;;
19877;SDS011;10101;52.204;9.910;2023-01-29T10:50:55;27.27;;;11.33;;
19877;SDS011;10101;52.204;9.910;2023-01-29T10:53:29;24.37;;;11.13;;
19877;SDS011;10101;52.204;9.910;2023-01-29T10:56:13;29.17;;;13.17;;
19877;SDS011;10101;52.204;9.910;2023-01-29T10:58:55;24.27;;;11.80;;
19877;SDS011;10101;52.204;9.910;2023-01-29T11:01:26;27.37;;;11.80;;
19877;SDS011;10101;52.204;9.910;2023-01-29T11:03:54;26.30;;;12.13;;
19877;SDS011;10101;52.204;9.910;2023-01-29T11:06:23;26.07;;;11.73;;
19877;SDS011;10101;52.204;9.910;2023-01-29T11:08:55;23.63;;;10.70;;
19877;SDS011;10101;52.204;9.910;2023-01-29T11:11:32;23.80;;;10.73;;
19877;SDS011;10101;52.204;9.910;2023-01-29T11:14:03;24.97;;;12.27;;
19877;SDS011;10101;52.204;9.910;2023-01-29T11:16:39;19.40;;;10.17;;
19877;SDS011;10101;52.204;9.910;2023-01-29T11:19:06;26.10;;;11.63;;
19877;SDS011;10101;52.204;9.910;2023-01-29T11:21:33;26.37;;;13.20;;
19877;SDS011;10101;52.204;9.910;2023-01-29T11:24:20;21.00;;;10.37;;
19877;SDS011;10101;52.204;9.910;2023-01-29T11:26:48;26.47;;;12.40;;
19877;SDS011;10101;52.204;9.910;2023-01-29T11:32:06;27.00;;;11.93;;
19877;SDS011;10101;52.204;9.910;2023-01-29T11:37:22;24.70;;;12.83;;
19877;SDS011;10101;52.204;9.910;2023-01-29T11:39:56;27.67;;;11.43;;
19877;SDS011;10101;52.204;9.910;2023-01-29T11:42:25;26.23;;;13.07;;
19877;SDS011;10101;52.204;9.910;2023-01-29T11:44:56;30.63;;;13.33;;
19877;SDS011;10101;52.204;9.910;2023-01-29T11:47:24;28.37;;;12.47;;
19877;SDS011;10101;52.204;9.910;2023-01-29T11:49:53;37.27;;;18.27;;
19877;SDS011;10101;52.204;9.910;2023-01-29T11:52:22;28.20;;;13.70;;
19877;SDS011;10101;52.204;9.910;2023-01-29T11:54:51;24.87;;;12.30;;
19877;SDS011;10101;52.204;9.910;2023-01-29T11:57:22;26.90;;;12.57;;
19877;SDS011;10101;52.204;9.910;2023-01-29T11:59:53;26.17;;;13.43;;
19877;SDS011;10101;52.204;9.910;2023-01-29T12:02:24;26.87;;;10.80;;
19877;SDS011;10101;52.204;9.910;2023-01-29T12:04:55;28.13;;;14.27;;
19877;SDS011;10101;52.204;9.910;2023-01-29T12:07:23;21.50;;;10.97;;
19877;SDS011;10101;52.204;9.910;2023-01-29T12:09:51;24.23;;;11.37;;
19877;SDS011;10101;52.204;9.910;2023-01-29T12:12:31;26.37;;;12.53;;
19877;SDS011;10101;52.204;9.910;2023-01-29T12:15:03;22.73;;;11.50;;
19877;SDS011;10101;52.204;9.910;2023-01-29T12:17:47;23.57;;;12.00;;
19877;SDS011;10101;52.204;9.910;2023-01-29T12:20:25;18.67;;;9.07;;
19877;SDS011;10101;52.204;9.910;2023-01-29T12:22:57;22.63;;;11.80;;
19877;SDS011;10101;52.204;9.910;2023-01-29T12:25:33;21.23;;;11.57;;
19877;SDS011;10101;52.204;9.910;2023-01-29T12:28:16;25.80;;;12.40;;
19877;SDS011;10101;52.204;9.910;2023-01-29T12:30:56;22.40;;;11.10;;
19877;SDS011;10101;52.204;9.910;2023-01-29T12:33:36;24.20;;;11.23;;
19877;SDS011;10101;52.204;9.910;2023-01-29T12:36:09;20.40;;;10.63;;
19877;SDS011;10101;52.204;9.910;2023-01-29T12:38:42;21.57;;;10.30;;
19877;SDS011;10101;52.204;9.910;2023-01-29T12:41:13;19.80;;;9.30;;
19877;SDS011;10101;52.204;9.910;2023-01-29T12:43:57;20.43;;;9.50;;
19877;SDS011;10101;52.204;9.910;2023-01-29T12:46:28;21.83;;;11.20;;
19877;SDS011;10101;52.204;9.910;2023-01-29T12:49:00;19.27;;;10.03;;
19877;SDS011;10101;52.204;9.910;2023-01-29T12:51:30;23.50;;;11.17;;
19877;SDS011;10101;52.204;9.910;2023-01-29T12:54:02;22.07;;;11.03;;
19877;SDS011;10101;52.204;9.910;2023-01-29T12:56:33;23.83;;;11.57;;
19877;SDS011;10101;52.204;9.910;2023-01-29T12:59:08;24.90;;;11.70;;
19877;SDS011;10101;52.204;9.910;2023-01-29T13:01:44;19.53;;;9.80;;
19877;SDS011;10101;52.204;9.910;2023-01-29T13:04:16;20.63;;;9.97;;
19877;SDS011;10101;52.204;9.910;2023-01-29T13:06:52;19.83;;;9.97;;
19877;SDS011;10101;52.204;9.910;2023-01-29T13:09:24;19.27;;;9.67;;
19877;SDS011;10101;52.204;9.910;2023-01-29T13:11:54;22.70;;;10.73;;
19877;SDS011;10101;52.204;9.910;2023-01-29T13:14:27;18.87;;;10.10;;
19877;SDS011;10101;52.204;9.910;2023-01-29T13:17:02;20.07;;;10.43;;
19877;SDS011;10101;52.204;9.910;2023-01-29T13:19:35;20.20;;;10.00;;
19877;SDS011;10101;52.204;9.910;2023-01-29T13:22:09;20.07;;;9.87;;
19877;SDS011;10101;52.204;9.910;2023-01-29T13:24:43;18.97;;;9.90;;
19877;SDS011;10101;52.204;9.910;2023-01-29T13:27:15;17.70;;;9.20;;
19877;SDS011;10101;52.204;9.910;2023-01-29T13:29:48;26.57;;;11.93;;
19877;SDS011;10101;52.204;9.910;2023-01-29T13:32:18;19.37;;;9.80;;
19877;SDS011;10101;52.204;9.910;2023-01-29T13:34:48;21.23;;;11.03;;
19877;SDS011;10101;52.204;9.910;2023-01-29T13:37:18;29.47;;;14.43;;
19877;SDS011;10101;52.204;9.910;2023-01-29T13:39:52;28.63;;;13.17;;
19877;SDS011;10101;52.204;9.910;2023-01-29T13:42:21;25.57;;;12.97;;
19877;SDS011;10101;52.204;9.910;2023-01-29T13:44:50;20.50;;;10.63;;
19877;SDS011;10101;52.204;9.910;2023-01-29T13:47:20;17.17;;;9.23;;
19877;SDS011;10101;52.204;9.910;2023-01-29T13:49:53;22.17;;;10.50;;
19877;SDS011;10101;52.204;9.910;2023-01-29T13:52:30;20.20;;;9.97;;
19877;SDS011;10101;52.204;9.910;2023-01-29T13:55:04;20.30;;;11.30;;
19877;SDS011;10101;52.204;9.910;2023-01-29T13:57:46;20.20;;;10.80;;
19877;SDS011;10101;52.204;9.910;2023-01-29T14:15:16;14.43;;;7.70;;
19877;SDS011;10101;52.204;9.910;2023-01-29T14:23:46;20.80;;;8.93;;
19877;SDS011;10101;52.204;9.910;2023-01-29T14:26:18;19.20;;;10.70;;
19877;SDS011;10101;52.204;9.910;2023-01-29T14:28:51;15.37;;;8.37;;
19877;SDS011;10101;52.204;9.910;2023-01-29T14:31:35;21.13;;;11.67;;
19877;SDS011;10101;52.204;9.910;2023-01-29T14:34:06;16.33;;;8.10;;
19877;SDS011;10101;52.204;9.910;2023-01-29T14:36:46;18.60;;;10.60;;
19877;SDS011;10101;52.204;9.910;2023-01-29T14:39:20;15.67;;;8.43;;
19877;SDS011;10101;52.204;9.910;2023-01-29T14:41:53;16.57;;;9.80;;
19877;SDS011;10101;52.204;9.910;2023-01-29T14:47:16;16.27;;;8.30;;
19877;SDS011;10101;52.204;9.910;2023-01-29T14:49:48;16.77;;;9.27;;
19877;SDS011;10101;52.204;9.910;2023-01-29T14:52:18;23.07;;;11.23;;
19877;SDS011;10101;52.204;9.910;2023-01-29T14:54:47;17.87;;;8.87;;
19877;SDS011;10101;52.204;9.910;2023-01-29T14:57:17;19.07;;;9.00;;
19877;SDS011;10101;52.204;9.910;2023-01-29T14:59:46;19.30;;;9.43;;
19877;SDS011;10101;52.204;9.910;2023-01-29T15:02:20;18.90;;;9.57;;
19877;SDS011;10101;52.204;9.910;2023-01-29T15:04:51;20.90;;;11.17;;
19877;SDS011;10101;52.204;9.910;2023-01-29T15:07:24;27.97;;;14.27;;
19877;SDS011;10101;52.204;9.910;2023-01-29T15:09:56;18.00;;;10.40;;
19877;SDS011;10101;52.204;9.910;2023-01-29T15:12:30;19.27;;;10.10;;
19877;SDS011;10101;52.204;9.910;2023-01-29T15:15:03;20.73;;;10.17;;
19877;SDS011;10101;52.204;9.910;2023-01-29T15:17:39;18.13;;;8.80;;
19877;SDS011;10101;52.204;9.910;2023-01-29T15:20:25;21.07;;;10.43;;
19877;SDS011;10101;52.204;9.910;2023-01-29T15:22:54;18.90;;;9.97;;
19877;SDS011;10101;52.204;9.910;2023-01-29T15:25:21;21.80;;;10.40;;